CheckWX is a tool to help pilots better visualize weather data.  It is not intended as a substitute for an official pre-flight weather briefing.

01:10:33 UTC

ENHK METAR
Hasvik Airport
Hasvik, Norway
Current

5 hours ago

ENHK 182020Z 29018KT 9999 -SHRA BKN017 04/03 Q1028
Observed
Apr-18 @ 20:20 UTC
Wind
  • 290° at 18 KTS
Visibility
10,000+ meters
Flight Rules
MVFR
Conditions
Light Rain
Cloud Levels
  • Broken at 1,700' AGL
Temperature
C / 39°F
Dewpoint
C / 37°F
Humidity
93%
Altimeter
30.35" Hg
Pressure
1027.92 hPa
Previous

6 hours ago

ENHK 181920Z 28012KT 9999 -SHRA BKN045 05/01 Q1028
Observed
Apr-18 @ 19:20 UTC
Wind
  • 280° at 12 KTS
Visibility
10,000+ meters
Flight Rules
VFR
Conditions
Light Rain
Cloud Levels
  • Broken at 4,500' AGL
Temperature
C / 41°F
Dewpoint
C / 34°F
Humidity
76%
Altimeter
30.35" Hg
Pressure
1027.92 hPa
Previous

6 hours ago

ENHK 181850Z 30010KT 9999 BKN037 05/01 Q1028
Observed
Apr-18 @ 18:50 UTC
Wind
  • 300° at 10 KTS
Visibility
10,000+ meters
Flight Rules
VFR
Cloud Levels
  • Broken at 3,700' AGL
Temperature
C / 41°F
Dewpoint
C / 34°F
Humidity
76%
Altimeter
30.35" Hg
Pressure
1027.92 hPa